Portada
METAR-TAF:

METAR-TAF

Aeroports :

Wanaham

Lifou, Nova Caledònia

latitud: 20-46S, longitud: 167-14E, altitud: 28 m

METAR: manca

Hora: 22:50 (11:50 UTC)

Pronòstic

L'informe es va fer fa 50 minuts, a les 11:00 UTC
Pronòstic vàlid del 23 a les 12 UTC al 24 a les 12 UTC
Vent 2 kt amb direcció variable
Visibilitat 10 km o més
Núvols disperses a una alçada de 2000 ft
Temporalment
l' 24 a les 00 UTC al 24 a les 09 UTC
Visibilitat: 4000 m
Cel ennuvolat a una alçada de 1400 ft
Escasses núvols a una alçada de 3000 ft, Cumulus congestus.
xàfecs de pluja

TAF: NWWL 231100Z 2312/2412 VRB02KT 9999 SCT020 TEMPO 2400/2409 4000 SHRA BKN014 FEW030TCU

Observacions i pronòstics meteorològics de més de 4000 aeroports (METAR i TAF).

Les estacions disponibles són els punts grocs i vermells al mapa.

Posi el ratolí al punt desitjat per veure el nom de l'estació.

Feu clic per veure les observacions i els pronòstics meteorològics.

Per canviar el mapa: feu clic els botons verds amb una creu de color negre per apropar; al botó verd amb un guió per allunyar la imatge; o en les fletxes verdes per a mapes adjacents.


METAR-TAF: